Menu

Last Readings (4 mins ago) Thu, 2 Oct 2014 20:20 +10:00 Seven Days Extremes
Parameter When Value Minimum Maximum
4 mins ago 42.34 km/h SE (22.86 knots) 4.68 km/h ESE (2.53 knots) 44.42 km/h SE (23.99 knots)
4 mins ago 24.76 °C 24.1 °C 25.23 °C
4 mins ago 0.1 mm 0.0 mm 0.2 mm
4 mins ago -0.51 umol s-¹ m-² -2.86 umol s-¹ m-² 1903.09 umol s-¹ m-²
4 mins ago 61.0 % 46.3 % 77.6 %
4 mins ago 24.4 °C 22.2 °C 25.1 °C
4 mins ago 1015.0 hpa 1012.0 hpa 1017.4 hpa
No quality control performed Bad data Probably bad data Probably good data Good data
Date wind speed water temperature@6.0m rain light humidity air temperature air pressure
2014-10-02 02:10 AM GMT+10:00 28.94 km/h SE (15.63 knots) 24.45 °C 0.0 mm -0.45 umol s-¹ m-² 55.9 % 24.0 °C 1012.9 hpa
2014-10-02 14:55 PM GMT+10:00 24.79 °C
2014-10-02 19:15 PM GMT+10:00 24.93 °C
2014-10-01 23:30 PM GMT+10:00 27.24 km/h SE (14.71 knots) 24.7 °C 0.0 mm 0.41 umol s-¹ m-² 59.1 % 24.3 °C 1014.9 hpa
2014-10-02 03:25 AM GMT+10:00 24.42 °C
2014-10-02 18:00 PM GMT+10:00 34.09 km/h SSE (18.41 knots) 25.17 °C 0.0 mm 58.94 umol s-¹ m-² 62.3 % 24.2 °C 1013.5 hpa
2014-10-02 07:15 AM GMT+10:00 24.22 °C
2014-10-02 12:50 PM GMT+10:00 26.27 km/h SSE (14.19 knots) 24.65 °C 0.0 mm 1827.38 umol s-¹ m-² 56.6 % 24.3 °C 1014.1 hpa
2014-10-02 20:15 PM GMT+10:00 24.77 °C
2014-10-02 20:00 PM GMT+10:00 41.83 km/h SE (22.59 knots) 24.8 °C 0.1 mm -1.01 umol s-¹ m-² 60.5 % 24.4 °C 1014.8 hpa
2014-10-02 09:00 AM GMT+10:00 29.2 km/h ESE (15.76 knots) 24.1 °C 0.0 mm 1340.74 umol s-¹ m-² 51.5 % 24.2 °C 1015.4 hpa
2014-10-02 00:20 AM GMT+10:00 25.22 km/h SE (13.62 knots) 24.62 °C 0.0 mm -0.15 umol s-¹ m-² 58.5 % 24.0 °C 1014.3 hpa
2014-10-02 14:50 PM GMT+10:00 31.57 km/h SSE (17.05 knots) 24.8 °C 0.0 mm 1380.3 umol s-¹ m-² 59.5 % 24.1 °C 1012.7 hpa
2014-10-02 20:20 PM GMT+10:00 42.34 km/h SE (22.86 knots) 24.76 °C 0.1 mm -0.51 umol s-¹ m-² 61.0 % 24.4 °C 1015.0 hpa
2014-10-01 23:35 PM GMT+10:00 24.71 °C
2014-10-02 04:10 AM GMT+10:00 29.16 km/h SSE (15.75 knots) 24.4 °C 0.0 mm -1.01 umol s-¹ m-² 52.6 % 23.8 °C 1012.3 hpa
2014-10-02 08:20 AM GMT+10:00 33.84 km/h ESE (18.27 knots) 24.11 °C 0.0 mm 1017.11 umol s-¹ m-² 52.8 % 24.1 °C 1015.0 hpa
2014-10-01 23:15 PM GMT+10:00 24.72 °C
2014-10-02 17:40 PM GMT+10:00 33.73 km/h SSE (18.21 knots) 25.23 °C 0.0 mm 140.82 umol s-¹ m-² 61.4 % 24.2 °C 1013.4 hpa
2014-10-01 23:05 PM GMT+10:00 24.73 °C
2014-10-02 13:10 PM GMT+10:00 27.52 km/h SSE (14.86 knots) 24.68 °C 0.0 mm 1778.0 umol s-¹ m-² 57.8 % 24.2 °C 1013.8 hpa
2014-10-02 08:45 AM GMT+10:00 24.1 °C
2014-10-01 20:35 PM GMT+10:00 24.86 °C
2014-10-01 22:40 PM GMT+10:00 31.0 km/h SE (16.74 knots) 24.76 °C 0.0 mm -0.43 umol s-¹ m-² 52.1 % 24.4 °C 1015.1 hpa
2014-10-02 18:20 PM GMT+10:00 36.76 km/h SSE (19.85 knots) 25.12 °C 0.0 mm 10.2 umol s-¹ m-² 63.8 % 24.3 °C 1013.7 hpa
2014-10-01 22:30 PM GMT+10:00 28.75 km/h SE (15.52 knots) 24.77 °C 0.0 mm 0.93 umol s-¹ m-² 51.4 % 24.5 °C 1015.1 hpa
2014-10-02 05:35 AM GMT+10:00 24.33 °C
2014-10-01 22:10 PM GMT+10:00 33.91 km/h SE (18.31 knots) 24.83 °C 0.0 mm 0.17 umol s-¹ m-² 52.6 % 24.5 °C 1015.0 hpa
2014-10-01 22:05 PM GMT+10:00 24.83 °C
2014-10-02 13:40 PM GMT+10:00 29.02 km/h SSE (15.67 knots) 24.68 °C 0.0 mm 1668.57 umol s-¹ m-² 59.8 % 24.3 °C 1013.4 hpa
2014-10-02 13:25 PM GMT+10:00 24.69 °C
2014-10-02 06:10 AM GMT+10:00 32.29 km/h SE (17.44 knots) 24.29 °C 0.0 mm 18.21 umol s-¹ m-² 56.7 % 23.7 °C 1013.1 hpa
2014-10-02 12:05 PM GMT+10:00 24.52 °C
2014-10-02 15:40 PM GMT+10:00 35.21 km/h SSE (19.01 knots) 24.85 °C 0.0 mm 987.27 umol s-¹ m-² 59.9 % 24.2 °C 1012.5 hpa
2014-10-02 03:00 AM GMT+10:00 29.05 km/h SE (15.69 knots) 24.4 °C 0.0 mm 0.62 umol s-¹ m-² 54.2 % 23.8 °C 1012.4 hpa
2014-10-01 22:50 PM GMT+10:00 25.45 km/h SE (13.74 knots) 24.74 °C 0.0 mm 0.92 umol s-¹ m-² 55.9 % 24.4 °C 1015.0 hpa
2014-10-02 11:10 AM GMT+10:00 29.2 km/h SE (15.76 knots) 24.55 °C 0.0 mm 1797.05 umol s-¹ m-² 55.5 % 24.2 °C 1015.3 hpa
2014-10-02 08:55 AM GMT+10:00 24.11 °C
2014-10-02 11:15 AM GMT+10:00 24.56 °C
2014-10-01 23:00 PM GMT+10:00 22.31 km/h SE (12.05 knots) 24.72 °C 0.0 mm -0.04 umol s-¹ m-² 55.6 % 24.3 °C 1015.0 hpa
2014-10-02 04:25 AM GMT+10:00 24.4 °C
2014-10-01 20:55 PM GMT+10:00 24.86 °C
2014-10-02 12:10 PM GMT+10:00 23.96 km/h SE (12.94 knots) 24.5 °C 0.0 mm 1849.65 umol s-¹ m-² 55.5 % 24.5 °C 1014.6 hpa
2014-10-02 19:25 PM GMT+10:00 24.89 °C
2014-10-02 02:55 AM GMT+10:00 24.39 °C
2014-10-01 21:00 PM GMT+10:00 31.54 km/h SE (17.03 knots) 24.86 °C 0.0 mm 0.03 umol s-¹ m-² 61.7 % 24.3 °C 1014.9 hpa
2014-10-02 00:30 AM GMT+10:00 27.03 km/h SE (14.59 knots) 24.61 °C 0.0 mm 0.34 umol s-¹ m-² 55.8 % 24.1 °C 1014.1 hpa
2014-10-02 13:05 PM GMT+10:00 24.68 °C
2014-10-02 02:50 AM GMT+10:00 29.16 km/h SE (15.75 knots) 24.38 °C 0.0 mm 0.43 umol s-¹ m-² 52.1 % 23.8 °C 1012.5 hpa
2014-10-02 07:35 AM GMT+10:00 24.2 °C
2014-10-01 23:10 PM GMT+10:00 30.67 km/h SE (16.56 knots) 24.72 °C 0.0 mm 0.62 umol s-¹ m-² 56.1 % 24.5 °C 1014.9 hpa
2014-10-02 05:45 AM GMT+10:00 24.32 °C
2014-10-02 02:25 AM GMT+10:00 24.42 °C
2014-10-01 21:55 PM GMT+10:00 24.83 °C
2014-10-02 17:20 PM GMT+10:00 34.2 km/h SSE (18.47 knots) 25.12 °C 0.0 mm 287.26 umol s-¹ m-² 61.2 % 24.3 °C 1013.1 hpa
2014-10-02 13:45 PM GMT+10:00 24.68 °C
2014-10-01 20:30 PM GMT+10:00 27.71 km/h SE (14.96 knots) 24.86 °C 0.0 mm 0.15 umol s-¹ m-² 62.1 % 24.2 °C 1014.7 hpa
2014-10-02 08:50 AM GMT+10:00 30.06 km/h ESE (16.23 knots) 24.11 °C 0.0 mm 1225.99 umol s-¹ m-² 48.2 % 24.2 °C 1015.4 hpa
2014-10-01 21:25 PM GMT+10:00 24.84 °C
2014-10-02 02:20 AM GMT+10:00 30.92 km/h SE (16.7 knots) 24.43 °C 0.0 mm -0.03 umol s-¹ m-² 54.6 % 23.9 °C 1012.8 hpa
2014-10-01 21:35 PM GMT+10:00 24.84 °C
2014-10-02 16:30 PM GMT+10:00 35.75 km/h SSE (19.3 knots) 24.95 °C 0.0 mm 704.18 umol s-¹ m-² 57.0 % 24.4 °C 1012.6 hpa
2014-10-02 07:20 AM GMT+10:00 31.07 km/h SE (16.78 knots) 24.22 °C 0.0 mm 370.94 umol s-¹ m-² 58.4 % 24.0 °C 1014.1 hpa
2014-10-02 11:25 AM GMT+10:00 24.57 °C
2014-10-02 16:40 PM GMT+10:00 33.26 km/h SSE (17.96 knots) 24.95 °C 0.0 mm 609.56 umol s-¹ m-² 59.6 % 24.2 °C 1012.7 hpa
2014-10-02 14:35 PM GMT+10:00 24.74 °C
2014-10-02 10:35 AM GMT+10:00 24.5 °C
2014-10-02 05:30 AM GMT+10:00 30.38 km/h SSE (16.41 knots) 24.33 °C 0.0 mm -0.01 umol s-¹ m-² 54.4 % 23.6 °C 1013.0 hpa
2014-10-02 08:10 AM GMT+10:00 34.27 km/h ESE (18.51 knots) 24.12 °C 0.0 mm 1012.07 umol s-¹ m-² 56.3 % 24.1 °C 1014.8 hpa
2014-10-02 14:20 PM GMT+10:00 30.38 km/h SSE (16.41 knots) 24.73 °C 0.0 mm 1298.41 umol s-¹ m-² 60.7 % 24.2 °C 1013.0 hpa
2014-10-02 18:40 PM GMT+10:00 36.5 km/h SSE (19.71 knots) 25.03 °C 0.0 mm 0.38 umol s-¹ m-² 64.1 % 24.2 °C 1013.7 hpa
2014-10-02 17:00 PM GMT+10:00 35.75 km/h SSE (19.3 knots) 24.98 °C 0.0 mm 387.91 umol s-¹ m-² 61.7 % 24.1 °C 1012.9 hpa
2014-10-02 11:50 AM GMT+10:00 25.03 km/h SE (13.51 knots) 24.59 °C 0.0 mm 1809.76 umol s-¹ m-² 54.3 % 24.2 °C 1014.9 hpa
2014-10-02 19:50 PM GMT+10:00 43.02 km/h SE (23.23 knots) 24.83 °C 0.1 mm -0.65 umol s-¹ m-² 63.9 % 24.5 °C 1014.7 hpa
2014-10-02 04:55 AM GMT+10:00 24.36 °C
2014-10-02 15:05 PM GMT+10:00 24.8 °C
2014-10-02 00:50 AM GMT+10:00 29.2 km/h SE (15.76 knots) 24.55 °C 0.0 mm -1.7 umol s-¹ m-² 53.6 % 24.2 °C 1013.8 hpa
2014-10-02 14:40 PM GMT+10:00 31.64 km/h SSE (17.09 knots) 24.75 °C 0.0 mm 1398.06 umol s-¹ m-² 61.1 % 24.2 °C 1012.7 hpa
2014-10-02 13:20 PM GMT+10:00 28.65 km/h SSE (15.47 knots) 24.69 °C 0.0 mm 1680.07 umol s-¹ m-² 58.6 % 24.1 °C 1013.6 hpa
2014-10-02 17:30 PM GMT+10:00 33.16 km/h SSE (17.9 knots) 25.19 °C 0.0 mm 182.38 umol s-¹ m-² 61.6 % 24.2 °C 1013.3 hpa
2014-10-02 00:05 AM GMT+10:00 24.64 °C
2014-10-02 05:20 AM GMT+10:00 31.57 km/h SE (17.05 knots) 24.34 °C 0.0 mm 0.25 umol s-¹ m-² 56.5 % 23.8 °C 1013.0 hpa
2014-10-02 06:00 AM GMT+10:00 30.74 km/h SE (16.6 knots) 24.3 °C 0.0 mm 4.21 umol s-¹ m-² 55.1 % 23.6 °C 1013.2 hpa
2014-10-02 13:15 PM GMT+10:00 24.68 °C
2014-10-02 00:15 AM GMT+10:00 24.63 °C
2014-10-02 07:40 AM GMT+10:00 32.58 km/h SE (17.59 knots) 24.19 °C 0.0 mm 358.42 umol s-¹ m-² 58.5 % 23.9 °C 1014.4 hpa
2014-10-02 00:45 AM GMT+10:00 24.56 °C
2014-10-01 22:00 PM GMT+10:00 31.14 km/h SE (16.81 knots) 24.83 °C 0.0 mm 0.22 umol s-¹ m-² 54.4 % 24.3 °C 1015.0 hpa
2014-10-01 22:15 PM GMT+10:00 24.81 °C
2014-10-02 17:05 PM GMT+10:00 25.0 °C
2014-10-02 08:15 AM GMT+10:00 24.11 °C
2014-10-02 09:30 AM GMT+10:00 29.59 km/h SE (15.98 knots) 24.14 °C 0.0 mm 1454.15 umol s-¹ m-² 50.3 % 24.1 °C 1015.6 hpa
2014-10-02 02:45 AM GMT+10:00 24.39 °C
2014-10-02 16:00 PM GMT+10:00 36.79 km/h SSE (19.87 knots) 24.9 °C 0.0 mm 755.42 umol s-¹ m-² 61.9 % 24.2 °C 1012.6 hpa
2014-10-02 14:25 PM GMT+10:00 24.72 °C
2014-10-02 09:45 AM GMT+10:00 24.21 °C
2014-10-02 13:55 PM GMT+10:00 24.7 °C
2014-10-01 22:20 PM GMT+10:00 34.34 km/h SE (18.54 knots) 24.79 °C 0.0 mm -0.18 umol s-¹ m-² 50.9 % 24.5 °C 1015.1 hpa
2014-10-02 03:10 AM GMT+10:00 27.31 km/h SE (14.75 knots) 24.41 °C 0.0 mm -0.13 umol s-¹ m-² 52.0 % 23.8 °C 1012.3 hpa
2014-10-02 09:50 AM GMT+10:00 27.15 km/h SE (14.66 knots) 24.23 °C 0.0 mm 1559.09 umol s-¹ m-² 54.5 % 24.2 °C 1015.6 hpa
2014-10-02 06:20 AM GMT+10:00 30.6 km/h SE (16.52 knots) 24.29 °C 0.0 mm 45.78 umol s-¹ m-² 56.7 % 23.7 °C 1013.3 hpa
2014-10-01 20:40 PM GMT+10:00 29.09 km/h SE (15.71 knots) 24.87 °C 0.0 mm 0.4 umol s-¹ m-² 59.1 % 24.1 °C 1014.9 hpa
2014-10-02 04:30 AM GMT+10:00 29.88 km/h SE (16.13 knots) 24.4 °C 0.0 mm -1.67 umol s-¹ m-² 52.8 % 23.9 °C 1012.5 hpa
2014-10-02 07:50 AM GMT+10:00 32.51 km/h SE (17.55 knots) 24.16 °C 0.0 mm 706.62 umol s-¹ m-² 58.1 % 23.9 °C 1014.6 hpa
2014-10-02 19:05 PM GMT+10:00 24.96 °C
2014-10-02 04:40 AM GMT+10:00 29.7 km/h SE (16.04 knots) 24.39 °C 0.0 mm -1.39 umol s-¹ m-² 55.3 % 23.8 °C 1012.6 hpa
2014-10-02 04:20 AM GMT+10:00 27.72 km/h SSE (14.97 knots) 24.4 °C 0.0 mm -2.37 umol s-¹ m-² 54.6 % 23.7 °C 1012.4 hpa
2014-10-02 13:30 PM GMT+10:00 28.62 km/h SSE (15.45 knots) 24.69 °C 0.0 mm 1713.69 umol s-¹ m-² 59.3 % 24.2 °C 1013.5 hpa
2014-10-01 22:55 PM GMT+10:00 24.73 °C
2014-10-02 18:50 PM GMT+10:00 36.72 km/h SSE (19.83 knots) 25.01 °C 0.0 mm -0.1 umol s-¹ m-² 63.8 % 24.3 °C 1013.9 hpa
2014-10-01 21:20 PM GMT+10:00 29.3 km/h SE (15.82 knots) 24.84 °C 0.0 mm 0.43 umol s-¹ m-² 60.2 % 24.2 °C 1015.1 hpa
2014-10-02 02:05 AM GMT+10:00 24.46 °C
2014-10-02 15:00 PM GMT+10:00 32.83 km/h SSE (17.73 knots) 24.79 °C 0.0 mm 1178.69 umol s-¹ m-² 60.7 % 24.2 °C 1012.7 hpa
2014-10-02 19:20 PM GMT+10:00 41.44 km/h SE (22.37 knots) 24.91 °C 0.1 mm 0.02 umol s-¹ m-² 66.3 % 24.3 °C 1014.2 hpa
2014-10-02 11:05 AM GMT+10:00 24.54 °C
2014-10-02 06:45 AM GMT+10:00 24.26 °C
2014-10-02 19:55 PM GMT+10:00 24.81 °C
2014-10-01 20:45 PM GMT+10:00 24.86 °C
2014-10-01 20:50 PM GMT+10:00 27.39 km/h SE (14.79 knots) 24.86 °C 0.0 mm -0.2 umol s-¹ m-² 63.4 % 24.2 °C 1015.0 hpa
2014-10-02 18:45 PM GMT+10:00 25.02 °C
2014-10-01 21:05 PM GMT+10:00 24.86 °C
2014-10-02 03:45 AM GMT+10:00 24.42 °C
2014-10-02 10:40 AM GMT+10:00 27.14 km/h SE (14.66 knots) 24.52 °C 0.0 mm 1861.91 umol s-¹ m-² 56.2 % 24.3 °C 1015.4 hpa
2014-10-02 02:30 AM GMT+10:00 29.38 km/h SE (15.86 knots) 24.41 °C 0.0 mm -0.34 umol s-¹ m-² 53.8 % 23.9 °C 1012.7 hpa
2014-10-02 14:00 PM GMT+10:00 32.36 km/h SSE (17.48 knots) 24.69 °C 0.0 mm 1593.38 umol s-¹ m-² 59.1 % 24.2 °C 1013.1 hpa
2014-10-02 06:15 AM GMT+10:00 24.3 °C
2014-10-02 01:45 AM GMT+10:00 24.5 °C
2014-10-02 10:45 AM GMT+10:00 24.53 °C
2014-10-02 03:50 AM GMT+10:00 30.49 km/h SE (16.46 knots) 24.41 °C 0.0 mm 0.68 umol s-¹ m-² 51.5 % 23.8 °C 1012.2 hpa
2014-10-02 16:55 PM GMT+10:00 24.97 °C
2014-10-02 15:15 PM GMT+10:00 24.87 °C
2014-10-01 21:30 PM GMT+10:00 30.06 km/h SE (16.23 knots) 24.84 °C 0.0 mm 0.5 umol s-¹ m-² 58.3 % 24.2 °C 1015.1 hpa
2014-10-02 14:30 PM GMT+10:00 30.38 km/h SSE (16.41 knots) 24.71 °C 0.0 mm 1444.16 umol s-¹ m-² 60.2 % 24.2 °C 1012.9 hpa
2014-10-01 22:35 PM GMT+10:00 24.76 °C
2014-10-02 15:20 PM GMT+10:00 32.72 km/h SSE (17.67 knots) 24.86 °C 0.0 mm 1179.17 umol s-¹ m-² 61.8 % 24.3 °C 1012.6 hpa
2014-10-02 06:05 AM GMT+10:00 24.29 °C
2014-10-02 10:30 AM GMT+10:00 27.78 km/h SE (15.0 knots) 24.47 °C 0.0 mm 1491.68 umol s-¹ m-² 55.8 % 24.2 °C 1015.5 hpa
2014-10-02 08:35 AM GMT+10:00 24.1 °C
2014-10-01 22:25 PM GMT+10:00 24.78 °C
2014-10-02 16:05 PM GMT+10:00 24.93 °C
2014-10-02 08:40 AM GMT+10:00 34.38 km/h ESE (18.56 knots) 24.1 °C 0.0 mm 1149.6 umol s-¹ m-² 52.4 % 24.3 °C 1015.3 hpa
2014-10-02 01:00 AM GMT+10:00 29.12 km/h SE (15.73 knots) 24.54 °C 0.0 mm -1.48 umol s-¹ m-² 56.2 % 24.2 °C 1013.9 hpa
2014-10-02 02:15 AM GMT+10:00 24.43 °C
2014-10-02 01:25 AM GMT+10:00 24.52 °C
2014-10-02 10:05 AM GMT+10:00 24.31 °C
2014-10-02 06:30 AM GMT+10:00 28.4 km/h SSE (15.33 knots) 24.26 °C 0.0 mm 87.46 umol s-¹ m-² 56.1 % 23.8 °C 1013.4 hpa
2014-10-02 15:25 PM GMT+10:00 24.87 °C
2014-10-02 13:50 PM GMT+10:00 30.64 km/h SSE (16.54 knots) 24.69 °C 0.0 mm 1641.8 umol s-¹ m-² 58.4 % 24.2 °C 1013.3 hpa
2014-10-02 16:20 PM GMT+10:00 34.85 km/h SSE (18.82 knots) 24.97 °C 0.0 mm 785.91 umol s-¹ m-² 59.3 % 24.4 °C 1012.6 hpa
2014-10-02 10:25 AM GMT+10:00 24.44 °C
2014-10-02 03:15 AM GMT+10:00 24.41 °C
2014-10-02 05:55 AM GMT+10:00 24.31 °C
2014-10-02 01:50 AM GMT+10:00 25.98 km/h ESE (14.03 knots) 24.5 °C 0.0 mm -0.23 umol s-¹ m-² 54.4 % 23.9 °C 1013.2 hpa
2014-10-02 05:50 AM GMT+10:00 30.53 km/h SSE (16.48 knots) 24.31 °C 0.0 mm -1.28 umol s-¹ m-² 58.0 % 23.8 °C 1013.1 hpa
2014-10-02 00:55 AM GMT+10:00 24.54 °C
2014-10-02 19:10 PM GMT+10:00 39.31 km/h SSE (21.23 knots) 24.94 °C 0.0 mm -0.13 umol s-¹ m-² 65.1 % 24.3 °C 1014.2 hpa
2014-10-02 16:10 PM GMT+10:00 35.21 km/h SSE (19.01 knots) 24.96 °C 0.0 mm 758.97 umol s-¹ m-² 58.8 % 24.3 °C 1012.5 hpa
2014-10-02 12:00 PM GMT+10:00 24.21 km/h SE (13.07 knots) 24.53 °C 0.0 mm 1866.58 umol s-¹ m-² 55.3 % 24.4 °C 1014.7 hpa
2014-10-01 23:50 PM GMT+10:00 27.36 km/h ESE (14.78 knots) 24.68 °C 0.0 mm 0.09 umol s-¹ m-² 59.0 % 24.1 °C 1014.7 hpa
2014-10-02 15:50 PM GMT+10:00 36.36 km/h SSE (19.63 knots) 24.85 °C 0.0 mm 1024.73 umol s-¹ m-² 60.5 % 24.2 °C 1012.6 hpa
2014-10-02 06:40 AM GMT+10:00 27.36 km/h SE (14.77 knots) 24.25 °C 0.0 mm 116.62 umol s-¹ m-² 57.2 % 23.8 °C 1013.5 hpa
2014-10-02 15:35 PM GMT+10:00 24.86 °C
2014-10-02 11:30 AM GMT+10:00 25.83 km/h SE (13.95 knots) 24.6 °C 0.0 mm 1542.12 umol s-¹ m-² 55.2 % 24.2 °C 1015.1 hpa
2014-10-02 07:30 AM GMT+10:00 33.05 km/h SE (17.84 knots) 24.21 °C 0.0 mm 207.83 umol s-¹ m-² 58.2 % 23.8 °C 1014.2 hpa
2014-10-02 16:25 PM GMT+10:00 24.96 °C
2014-10-02 03:05 AM GMT+10:00 24.4 °C
2014-10-02 17:50 PM GMT+10:00 33.44 km/h SSE (18.06 knots) 25.21 °C 0.0 mm 87.15 umol s-¹ m-² 62.5 % 24.3 °C 1013.5 hpa
2014-10-02 08:30 AM GMT+10:00 34.88 km/h SE (18.84 knots) 24.1 °C 0.0 mm 1077.2 umol s-¹ m-² 50.9 % 24.1 °C 1015.1 hpa
2014-10-02 08:25 AM GMT+10:00 24.1 °C
2014-10-02 01:20 AM GMT+10:00 26.54 km/h ESE (14.33 knots) 24.54 °C 0.0 mm -0.29 umol s-¹ m-² 57.1 % 24.0 °C 1013.6 hpa
2014-10-02 09:05 AM GMT+10:00 24.1 °C
2014-10-02 10:15 AM GMT+10:00 24.38 °C
2014-10-02 06:50 AM GMT+10:00 29.66 km/h SSE (16.02 knots) 24.25 °C 0.0 mm 164.94 umol s-¹ m-² 53.4 % 23.8 °C 1013.7 hpa
2014-10-02 15:45 PM GMT+10:00 24.86 °C
2014-10-01 21:40 PM GMT+10:00 32.54 km/h SE (17.57 knots) 24.83 °C 0.0 mm -0.23 umol s-¹ m-² 56.6 % 24.3 °C 1015.1 hpa
2014-10-01 21:10 PM GMT+10:00 29.63 km/h SE (16.0 knots) 24.85 °C 0.0 mm 0.54 umol s-¹ m-² 61.5 % 24.2 °C 1015.0 hpa
2014-10-02 18:10 PM GMT+10:00 37.48 km/h SSE (20.24 knots) 25.14 °C 0.0 mm 26.41 umol s-¹ m-² 61.8 % 24.2 °C 1013.6 hpa
2014-10-02 01:10 AM GMT+10:00 26.13 km/h ESE (14.11 knots) 24.53 °C 0.0 mm 0.07 umol s-¹ m-² 55.6 % 24.0 °C 1013.7 hpa
2014-10-02 04:00 AM GMT+10:00 30.96 km/h SE (16.72 knots) 24.41 °C 0.0 mm 0.27 umol s-¹ m-² 47.8 % 23.8 °C 1012.4 hpa
2014-10-02 02:35 AM GMT+10:00 24.4 °C
2014-10-02 05:10 AM GMT+10:00 30.1 km/h SE (16.25 knots) 24.36 °C 0.0 mm -1.91 umol s-¹ m-² 55.0 % 23.8 °C 1012.8 hpa
2014-10-02 19:45 PM GMT+10:00 24.84 °C
2014-10-02 01:40 AM GMT+10:00 27.7 km/h ESE (14.96 knots) 24.5 °C 0.0 mm 0.05 umol s-¹ m-² 56.0 % 23.8 °C 1013.4 hpa
2014-10-02 11:40 AM GMT+10:00 25.16 km/h SE (13.59 knots) 24.62 °C 0.0 mm 1841.22 umol s-¹ m-² 57.4 % 24.3 °C 1015.0 hpa
2014-10-02 04:35 AM GMT+10:00 24.39 °C
2014-10-02 16:50 PM GMT+10:00 32.51 km/h SSE (17.55 knots) 24.96 °C 0.0 mm 432.62 umol s-¹ m-² 64.9 % 24.3 °C 1012.8 hpa
2014-10-02 18:55 PM GMT+10:00 24.99 °C
2014-10-02 00:00 AM GMT+10:00 26.46 km/h SE (14.29 knots) 24.65 °C 0.0 mm -0.8 umol s-¹ m-² 58.4 % 24.0 °C 1014.6 hpa
2014-10-02 17:45 PM GMT+10:00 25.23 °C
2014-10-02 12:55 PM GMT+10:00 24.67 °C
2014-10-02 03:55 AM GMT+10:00 24.41 °C
2014-10-02 12:25 PM GMT+10:00 24.56 °C
2014-10-02 11:20 AM GMT+10:00 27.68 km/h SE (14.95 knots) 24.57 °C 0.0 mm 1757.07 umol s-¹ m-² 55.2 % 24.1 °C 1015.2 hpa
2014-10-02 05:40 AM GMT+10:00 32.44 km/h SE (17.51 knots) 24.33 °C 0.0 mm -0.2 umol s-¹ m-² 54.8 % 23.7 °C 1013.0 hpa
2014-10-02 08:05 AM GMT+10:00 24.14 °C
2014-10-02 07:45 AM GMT+10:00 24.19 °C
2014-10-02 03:20 AM GMT+10:00 29.52 km/h SE (15.94 knots) 24.41 °C 0.0 mm -1.28 umol s-¹ m-² 50.9 % 23.8 °C 1012.3 hpa
2014-10-02 04:50 AM GMT+10:00 31.57 km/h SE (17.05 knots) 24.37 °C 0.0 mm -1.95 umol s-¹ m-² 53.4 % 23.8 °C 1012.7 hpa
2014-10-02 04:15 AM GMT+10:00 24.4 °C
2014-10-02 15:55 PM GMT+10:00 24.87 °C
2014-10-01 21:50 PM GMT+10:00 30.74 km/h SE (16.6 knots) 24.83 °C 0.0 mm -0.17 umol s-¹ m-² 58.3 % 24.4 °C 1015.2 hpa
2014-10-02 05:15 AM GMT+10:00 24.37 °C
2014-10-02 07:25 AM GMT+10:00 24.21 °C
2014-10-02 11:35 AM GMT+10:00 24.62 °C
2014-10-01 21:15 PM GMT+10:00 24.85 °C
2014-10-02 03:40 AM GMT+10:00 30.1 km/h SE (16.25 knots) 24.42 °C 0.0 mm -0.24 umol s-¹ m-² 54.7 % 23.9 °C 1012.3 hpa
2014-10-02 18:30 PM GMT+10:00 38.05 km/h SSE (20.55 knots) 25.07 °C 0.0 mm 1.89 umol s-¹ m-² 62.9 % 24.2 °C 1013.7 hpa
2014-10-02 02:00 AM GMT+10:00 27.54 km/h ESE (14.87 knots) 24.47 °C 0.0 mm 0.07 umol s-¹ m-² 53.9 % 23.8 °C 1013.0 hpa
2014-10-02 02:40 AM GMT+10:00 30.17 km/h SE (16.29 knots) 24.39 °C 0.0 mm -1.17 umol s-¹ m-² 53.2 % 23.9 °C 1012.5 hpa
2014-10-02 19:35 PM GMT+10:00 24.87 °C
2014-10-01 23:55 PM GMT+10:00 24.67 °C
2014-10-02 01:30 AM GMT+10:00 27.23 km/h ESE (14.71 knots) 24.5 °C 0.0 mm -0.84 umol s-¹ m-² 56.4 % 23.9 °C 1013.4 hpa
2014-10-02 01:15 AM GMT+10:00 24.54 °C
2014-10-02 08:00 AM GMT+10:00 32.22 km/h SE (17.4 knots) 24.14 °C 0.0 mm 715.7 umol s-¹ m-² 58.2 % 24.1 °C 1014.7 hpa
2014-10-02 19:00 PM GMT+10:00 40.03 km/h SSE (21.62 knots) 24.98 °C 0.0 mm 0.54 umol s-¹ m-² 64.8 % 24.4 °C 1014.1 hpa
2014-10-02 06:35 AM GMT+10:00 24.25 °C
2014-10-01 23:40 PM GMT+10:00 27.55 km/h ESE (14.88 knots) 24.71 °C 0.0 mm 1.07 umol s-¹ m-² 58.0 % 24.2 °C 1014.7 hpa
2014-10-02 06:55 AM GMT+10:00 24.24 °C
2014-10-01 20:25 PM GMT+10:00 24.86 °C
2014-10-02 00:10 AM GMT+10:00 26.22 km/h SE (14.16 knots) 24.66 °C 0.0 mm -0.22 umol s-¹ m-² 58.2 % 24.0 °C 1014.4 hpa
2014-10-02 11:45 AM GMT+10:00 24.58 °C
2014-10-02 04:45 AM GMT+10:00 24.38 °C
2014-10-02 10:10 AM GMT+10:00 28.73 km/h SE (15.51 knots) 24.34 °C 0.0 mm 1653.99 umol s-¹ m-² 52.2 % 24.1 °C 1015.5 hpa
2014-10-02 10:55 AM GMT+10:00 24.55 °C
2014-10-02 14:45 PM GMT+10:00 24.78 °C
2014-10-02 10:50 AM GMT+10:00 27.05 km/h SE (14.61 knots) 24.52 °C 0.0 mm 1680.35 umol s-¹ m-² 56.1 % 24.3 °C 1015.4 hpa
2014-10-02 12:20 PM GMT+10:00 23.47 km/h SSE (12.67 knots) 24.53 °C 0.0 mm 1714.5 umol s-¹ m-² 59.2 % 24.3 °C 1014.5 hpa
2014-10-02 14:15 PM GMT+10:00 24.72 °C
2014-10-02 13:00 PM GMT+10:00 27.62 km/h SSE (14.91 knots) 24.67 °C 0.0 mm 1543.23 umol s-¹ m-² 57.7 % 24.1 °C 1014.0 hpa
2014-10-02 09:55 AM GMT+10:00 24.25 °C
2014-10-02 20:10 PM GMT+10:00 40.9 km/h SE (22.08 knots) 24.78 °C 0.1 mm 0.02 umol s-¹ m-² 62.7 % 24.6 °C 1014.8 hpa
2014-10-02 10:00 AM GMT+10:00 28.05 km/h SE (15.14 knots) 24.28 °C 0.0 mm 1573.79 umol s-¹ m-² 51.7 % 24.1 °C 1015.5 hpa
2014-10-02 11:55 AM GMT+10:00 24.59 °C
2014-10-02 09:10 AM GMT+10:00 29.7 km/h SE (16.04 knots) 24.11 °C 0.0 mm 1177.93 umol s-¹ m-² 51.8 % 24.2 °C 1015.4 hpa
2014-10-02 16:15 PM GMT+10:00 24.99 °C
2014-10-02 00:25 AM GMT+10:00 24.62 °C
2014-10-01 21:45 PM GMT+10:00 24.83 °C
2014-10-02 03:35 AM GMT+10:00 24.42 °C
2014-10-02 17:15 PM GMT+10:00 25.09 °C
2014-10-02 12:40 PM GMT+10:00 23.34 km/h SSE (12.6 knots) 24.64 °C 0.0 mm 1759.83 umol s-¹ m-² 57.3 % 24.3 °C 1014.3 hpa
2014-10-02 09:15 AM GMT+10:00 24.12 °C
2014-10-02 07:10 AM GMT+10:00 29.27 km/h SE (15.8 knots) 24.23 °C 0.0 mm 444.6 umol s-¹ m-² 55.6 % 24.0 °C 1014.0 hpa
2014-10-02 09:25 AM GMT+10:00 24.13 °C
2014-10-02 06:25 AM GMT+10:00 24.28 °C
2014-10-02 18:35 PM GMT+10:00 25.05 °C
2014-10-02 15:30 PM GMT+10:00 34.24 km/h SSE (18.49 knots) 24.88 °C 0.0 mm 901.8 umol s-¹ m-² 63.6 % 24.3 °C 1012.6 hpa
2014-10-02 18:25 PM GMT+10:00 25.08 °C
2014-10-02 11:00 AM GMT+10:00 28.48 km/h SE (15.38 knots) 24.55 °C 0.0 mm 1566.42 umol s-¹ m-² 55.4 % 24.2 °C 1015.3 hpa
2014-10-02 00:35 AM GMT+10:00 24.59 °C
2014-10-02 12:15 PM GMT+10:00 24.51 °C
2014-10-02 05:25 AM GMT+10:00 24.34 °C
2014-10-01 22:45 PM GMT+10:00 24.75 °C
2014-10-02 18:05 PM GMT+10:00 25.16 °C
2014-10-02 15:10 PM GMT+10:00 32.69 km/h S (17.65 knots) 24.85 °C 0.0 mm 1076.81 umol s-¹ m-² 60.5 % 24.2 °C 1012.6 hpa
2014-10-02 12:35 PM GMT+10:00 24.64 °C
2014-10-02 16:35 PM GMT+10:00 24.95 °C
2014-10-02 09:20 AM GMT+10:00 31.0 km/h SE (16.74 knots) 24.12 °C 0.0 mm 1261.5 umol s-¹ m-² 51.3 % 24.1 °C 1015.3 hpa
2014-10-02 03:30 AM GMT+10:00 28.91 km/h SE (15.61 knots) 24.41 °C 0.0 mm 0.76 umol s-¹ m-² 51.3 % 23.9 °C 1012.4 hpa
2014-10-02 12:30 PM GMT+10:00 21.1 km/h SSE (11.39 knots) 24.62 °C 0.0 mm 1808.15 umol s-¹ m-² 55.4 % 24.3 °C 1014.3 hpa
2014-10-02 09:40 AM GMT+10:00 26.71 km/h SE (14.42 knots) 24.18 °C 0.0 mm 1407.64 umol s-¹ m-² 50.2 % 24.1 °C 1015.6 hpa
2014-10-02 20:05 PM GMT+10:00 24.79 °C
2014-10-02 18:15 PM GMT+10:00 25.13 °C
2014-10-02 14:05 PM GMT+10:00 24.69 °C
2014-10-02 14:10 PM GMT+10:00 31.61 km/h SSE (17.07 knots) 24.71 °C 0.0 mm 1633.82 umol s-¹ m-² 61.1 % 24.2 °C 1013.1 hpa
2014-10-02 01:05 AM GMT+10:00 24.53 °C
2014-10-02 16:45 PM GMT+10:00 24.95 °C
2014-10-02 04:05 AM GMT+10:00 24.4 °C
2014-10-02 19:30 PM GMT+10:00 43.06 km/h SE (23.25 knots) 24.88 °C 0.1 mm 0.44 umol s-¹ m-² 65.3 % 24.3 °C 1014.4 hpa
2014-10-02 07:55 AM GMT+10:00 24.15 °C
2014-10-02 01:55 AM GMT+10:00 24.48 °C
2014-10-02 10:20 AM GMT+10:00 23.54 km/h SE (12.71 knots) 24.41 °C 0.0 mm 1613.79 umol s-¹ m-² 53.7 % 24.2 °C 1015.5 hpa
2014-10-02 17:55 PM GMT+10:00 25.19 °C
2014-10-02 05:05 AM GMT+10:00 24.37 °C
2014-10-02 19:40 PM GMT+10:00 44.42 km/h SE (23.99 knots) 24.86 °C 0.1 mm 0.2 umol s-¹ m-² 63.8 % 24.4 °C 1014.6 hpa
2014-10-02 05:00 AM GMT+10:00 30.46 km/h SE (16.44 knots) 24.36 °C 0.0 mm -1.58 umol s-¹ m-² 53.3 % 23.7 °C 1012.7 hpa
2014-10-02 01:35 AM GMT+10:00 24.5 °C
2014-10-01 23:25 PM GMT+10:00 24.71 °C
2014-10-02 17:25 PM GMT+10:00 25.14 °C
2014-10-02 00:40 AM GMT+10:00 28.87 km/h SE (15.59 knots) 24.57 °C 0.0 mm 0.26 umol s-¹ m-² 55.4 % 24.1 °C 1014.0 hpa
2014-10-02 17:10 PM GMT+10:00 32.98 km/h SSE (17.81 knots) 25.06 °C 0.0 mm 421.79 umol s-¹ m-² 61.9 % 24.2 °C 1013.0 hpa
2014-10-01 23:20 PM GMT+10:00 31.68 km/h SE (17.11 knots) 24.72 °C 0.0 mm -0.06 umol s-¹ m-² 57.5 % 24.3 °C 1014.9 hpa
2014-10-02 12:45 PM GMT+10:00 24.64 °C
2014-10-02 09:35 AM GMT+10:00 24.16 °C
2014-10-02 07:05 AM GMT+10:00 24.24 °C
2014-10-02 13:35 PM GMT+10:00 24.69 °C
2014-10-02 07:00 AM GMT+10:00 29.88 km/h SSE (16.13 knots) 24.24 °C 0.0 mm 384.5 umol s-¹ m-² 55.1 % 24.0 °C 1013.8 hpa
2014-10-01 23:45 PM GMT+10:00 24.7 °C
2014-10-02 17:35 PM GMT+10:00 25.22 °C
Date wind speed water temperature@6.0m rain light humidity air temperature air pressure